createdAt,value
2022-12-27T00:00:26.914Z,21.73
2022-12-27T00:01:27.511Z,21.76
2022-12-27T00:02:28.213Z,21.77
2022-12-27T00:03:28.870Z,21.77
2022-12-27T00:04:29.464Z,21.80
2022-12-27T00:05:30.133Z,21.72
2022-12-27T00:06:30.796Z,21.73
2022-12-27T00:07:31.399Z,21.80
2022-12-27T00:08:31.995Z,21.76
2022-12-27T00:09:32.749Z,21.76
2022-12-27T00:10:33.345Z,21.76
2022-12-27T00:11:34.096Z,21.77
2022-12-27T00:12:34.743Z,21.77
2022-12-27T00:13:35.339Z,21.79
2022-12-27T00:14:35.931Z,21.80
2022-12-27T00:15:36.540Z,21.73
2022-12-27T00:16:37.193Z,21.75
2022-12-27T00:17:37.902Z,21.67
2022-12-27T00:18:38.480Z,21.70
2022-12-27T00:19:39.090Z,21.67
2022-12-27T00:20:39.673Z,21.64
2022-12-27T00:21:40.277Z,21.64
2022-12-27T00:22:40.938Z,21.57
2022-12-27T00:23:41.547Z,21.55
2022-12-27T00:24:42.141Z,21.55
2022-12-27T00:25:42.738Z,21.46
2022-12-27T00:26:43.343Z,21.45
2022-12-27T00:27:43.940Z,21.52
2022-12-27T00:28:44.540Z,21.45
2022-12-27T00:29:45.138Z,21.42
2022-12-27T00:30:46.655Z,21.36
2022-12-27T00:31:48.127Z,21.40
2022-12-27T00:32:48.782Z,21.36
2022-12-27T00:33:49.376Z,21.30
2022-12-27T00:34:50.033Z,21.32
2022-12-27T00:35:50.623Z,21.24
2022-12-27T00:36:51.230Z,21.30
2022-12-27T00:37:51.893Z,21.24
2022-12-27T00:38:53.351Z,21.22
2022-12-27T00:39:53.992Z,21.20
2022-12-27T00:40:54.592Z,21.21
2022-12-27T00:41:55.187Z,21.14
2022-12-27T00:42:55.794Z,21.18
2022-12-27T00:43:56.466Z,21.15
2022-12-27T00:44:57.058Z,21.12
2022-12-27T00:45:57.693Z,21.15
2022-12-27T00:46:58.378Z,21.09
2022-12-27T00:47:58.971Z,21.02
2022-12-27T00:48:59.575Z,21.03
2022-12-27T00:50:00.169Z,21.00
2022-12-27T00:51:00.773Z,21.07
2022-12-27T00:52:01.368Z,21.00
2022-12-27T00:53:01.970Z,20.99
2022-12-27T00:54:02.562Z,21.03
2022-12-27T00:55:03.165Z,20.99
2022-12-27T00:56:03.759Z,21.06
2022-12-27T00:57:04.364Z,21.02
2022-12-27T00:58:04.959Z,21.02
2022-12-27T00:59:05.578Z,21.02
2022-12-27T01:00:10.096Z,20.97
2022-12-27T01:01:07.787Z,20.97
2022-12-27T01:02:08.471Z,20.96
2022-12-27T01:03:09.079Z,20.90
2022-12-27T01:04:09.706Z,20.87
2022-12-27T01:05:10.286Z,20.93
2022-12-27T01:06:10.883Z,20.87
2022-12-27T01:07:11.489Z,20.90
2022-12-27T01:08:12.077Z,20.85
2022-12-27T01:09:12.680Z,20.81
2022-12-27T01:10:13.278Z,20.81
2022-12-27T01:11:13.877Z,20.78
2022-12-27T01:12:14.473Z,20.85
2022-12-27T01:13:15.082Z,20.77
2022-12-27T01:14:15.684Z,20.75
2022-12-27T01:15:16.275Z,20.80
2022-12-27T01:16:16.933Z,20.85
2022-12-27T01:17:18.189Z,20.80
2022-12-27T01:18:18.785Z,20.69
2022-12-27T01:19:19.389Z,20.72
2022-12-27T01:20:19.974Z,20.72
2022-12-27T01:21:20.579Z,20.63
2022-12-27T01:22:21.178Z,20.63
2022-12-27T01:23:21.780Z,20.62
2022-12-27T01:24:22.375Z,20.60
2022-12-27T01:25:22.979Z,20.62
2022-12-27T01:26:23.576Z,20.69
2022-12-27T01:27:24.179Z,20.69
2022-12-27T01:28:24.775Z,20.65
2022-12-27T01:29:25.375Z,20.67
2022-12-27T01:30:25.975Z,20.62
2022-12-27T01:31:26.679Z,20.59
2022-12-27T01:32:27.279Z,20.62
2022-12-27T01:33:27.881Z,20.59
2022-12-27T01:34:28.480Z,20.62
2022-12-27T01:35:29.077Z,20.55
2022-12-27T01:36:29.673Z,20.52
2022-12-27T01:37:30.345Z,20.50
2022-12-27T01:38:30.926Z,20.50
2022-12-27T01:39:31.524Z,20.51
2022-12-27T01:40:32.170Z,20.44
2022-12-27T01:41:32.821Z,20.41
2022-12-27T01:42:33.425Z,20.41
2022-12-27T01:43:34.019Z,20.44
2022-12-27T01:44:34.613Z,20.48
2022-12-27T01:45:35.403Z,20.41
2022-12-27T01:46:36.074Z,20.43
2022-12-27T01:47:36.689Z,20.40
2022-12-27T01:48:37.271Z,20.41
2022-12-27T01:49:38.721Z,20.47
2022-12-27T01:50:39.341Z,20.41
2022-12-27T01:51:39.925Z,20.47
2022-12-27T01:52:40.524Z,20.34
2022-12-27T01:53:41.189Z,20.41
2022-12-27T01:54:41.852Z,20.37
2022-12-27T01:55:42.465Z,20.39
2022-12-27T01:56:43.056Z,20.37
2022-12-27T01:57:43.660Z,20.31
2022-12-27T01:58:44.247Z,20.29
2022-12-27T01:59:44.852Z,20.28
2022-12-27T02:00:45.582Z,20.32
2022-12-27T02:01:46.291Z,20.32
2022-12-27T02:02:47.036Z,20.26
2022-12-27T02:03:47.748Z,20.34
2022-12-27T02:04:48.341Z,20.31
2022-12-27T02:05:48.969Z,20.34
2022-12-27T02:06:49.609Z,20.26
2022-12-27T02:07:50.207Z,20.26
2022-12-27T02:08:50.805Z,20.28
2022-12-27T02:09:51.408Z,20.28
2022-12-27T02:10:52.010Z,20.26
2022-12-27T02:11:52.620Z,20.29
2022-12-27T02:12:53.224Z,20.18
2022-12-27T02:13:53.824Z,20.25
2022-12-27T02:14:54.412Z,20.25
2022-12-27T02:15:55.021Z,20.24
2022-12-27T02:16:55.667Z,20.26
2022-12-27T02:17:56.264Z,20.25
2022-12-27T02:18:56.861Z,20.21
2022-12-27T02:19:57.471Z,20.11
2022-12-27T02:20:58.130Z,20.19
2022-12-27T02:21:58.733Z,20.16
2022-12-27T02:22:59.326Z,20.21
2022-12-27T02:23:59.929Z,20.19
2022-12-27T02:25:00.666Z,20.14
2022-12-27T02:26:01.472Z,20.14
2022-12-27T02:27:02.121Z,20.19
2022-12-27T02:28:02.722Z,20.16
2022-12-27T02:29:03.317Z,20.19
2022-12-27T02:30:03.919Z,20.14
2022-12-27T02:31:04.550Z,20.13
2022-12-27T02:32:05.169Z,20.13
2022-12-27T02:33:05.773Z,20.16
2022-12-27T02:34:06.437Z,20.19
2022-12-27T02:35:07.101Z,20.06
2022-12-27T02:36:07.707Z,20.04
2022-12-27T02:37:08.302Z,20.16
2022-12-27T02:38:08.904Z,20.18
2022-12-27T02:39:09.497Z,20.14
2022-12-27T02:40:10.113Z,20.13
2022-12-27T02:41:10.698Z,20.10
2022-12-27T02:42:11.300Z,20.03
2022-12-27T02:43:11.894Z,20.07
2022-12-27T02:44:12.495Z,20.13
2022-12-27T02:45:13.087Z,20.02
2022-12-27T02:46:18.455Z,20.03
2022-12-27T02:47:15.332Z,20.04
2022-12-27T02:48:15.931Z,20.09
2022-12-27T02:49:16.675Z,20.00
2022-12-27T02:50:17.293Z,20.06
2022-12-27T02:51:18.032Z,20.06
2022-12-27T02:52:18.589Z,20.02
2022-12-27T02:53:19.182Z,20.07
2022-12-27T02:54:19.836Z,20.06
2022-12-27T02:55:20.482Z,20.09
2022-12-27T02:56:21.087Z,20.06
2022-12-27T02:57:21.672Z,20.07
2022-12-27T02:58:22.334Z,20.10
2022-12-27T02:59:22.928Z,20.10
2022-12-27T03:00:23.531Z,20.02
2022-12-27T03:01:24.231Z,20.09
2022-12-27T03:02:25.012Z,20.06
2022-12-27T03:03:25.689Z,20.04
2022-12-27T03:04:26.288Z,20.00
2022-12-27T03:05:26.936Z,20.02
2022-12-27T03:06:27.537Z,20.00
2022-12-27T03:07:28.125Z,19.96
2022-12-27T03:08:28.726Z,20.00
2022-12-27T03:09:29.321Z,19.99
2022-12-27T03:10:29.920Z,19.92
2022-12-27T03:11:30.524Z,19.95
2022-12-27T03:12:31.112Z,19.91
2022-12-27T03:13:31.707Z,20.03
2022-12-27T03:14:32.308Z,19.95
2022-12-27T03:15:33.528Z,19.94
2022-12-27T03:16:34.206Z,19.94
2022-12-27T03:17:34.805Z,19.92
2022-12-27T03:18:35.401Z,19.92
2022-12-27T03:19:36.001Z,19.94
2022-12-27T03:20:36.604Z,19.96
2022-12-27T03:21:37.201Z,19.95
2022-12-27T03:22:37.804Z,19.94
2022-12-27T03:23:38.400Z,19.96
2022-12-27T03:24:39.002Z,19.96
2022-12-27T03:25:39.605Z,19.91
2022-12-27T03:26:40.197Z,19.92
2022-12-27T03:27:40.789Z,19.94
2022-12-27T03:28:41.400Z,19.95
2022-12-27T03:29:42.050Z,19.96
2022-12-27T03:30:42.667Z,19.92
2022-12-27T03:31:43.283Z,19.92
2022-12-27T03:32:43.887Z,19.94
2022-12-27T03:33:44.478Z,19.88
2022-12-27T03:34:45.081Z,20.02
2022-12-27T03:35:45.676Z,19.92
2022-12-27T03:36:46.279Z,19.89
2022-12-27T03:37:46.875Z,19.89
2022-12-27T03:38:47.539Z,20.00
2022-12-27T03:39:48.139Z,19.91
2022-12-27T03:40:48.734Z,19.95
2022-12-27T03:41:49.328Z,19.88
2022-12-27T03:42:49.939Z,20.00
2022-12-27T03:43:50.523Z,19.82
2022-12-27T03:44:51.123Z,19.81
2022-12-27T03:45:51.715Z,19.84
2022-12-27T03:46:52.320Z,19.92
2022-12-27T03:47:52.915Z,19.86
2022-12-27T03:48:53.519Z,19.89
2022-12-27T03:49:54.111Z,19.85
2022-12-27T03:50:55.563Z,19.77
2022-12-27T03:51:56.180Z,19.92
2022-12-27T03:52:57.618Z,19.91
2022-12-27T03:53:58.271Z,19.94
2022-12-27T03:54:58.875Z,19.77
2022-12-27T03:55:59.470Z,19.94
2022-12-27T03:57:00.097Z,19.89
2022-12-27T03:58:00.675Z,19.82
2022-12-27T03:59:02.078Z,19.86
2022-12-27T04:00:02.673Z,19.89
2022-12-27T04:01:03.290Z,19.89
2022-12-27T04:02:03.958Z,19.86
2022-12-27T04:03:04.633Z,19.94
2022-12-27T04:04:05.297Z,19.92
2022-12-27T04:05:06.697Z,19.85
2022-12-27T04:06:07.343Z,19.84
2022-12-27T04:07:07.958Z,19.89
2022-12-27T04:08:08.590Z,19.89
2022-12-27T04:09:10.029Z,19.84
2022-12-27T04:10:10.626Z,19.88
2022-12-27T04:11:11.225Z,19.88
2022-12-27T04:12:11.817Z,19.92
2022-12-27T04:13:12.421Z,19.85
2022-12-27T04:14:13.016Z,19.94
2022-12-27T04:15:13.622Z,19.84
2022-12-27T04:16:14.315Z,19.84
2022-12-27T04:17:14.953Z,19.85
2022-12-27T04:18:15.550Z,19.84
2022-12-27T04:19:16.152Z,19.85
2022-12-27T04:20:17.542Z,19.85
2022-12-27T04:21:18.146Z,19.86
2022-12-27T04:22:18.739Z,19.81
2022-12-27T04:23:20.142Z,19.85
2022-12-27T04:24:20.745Z,19.82
2022-12-27T04:25:21.339Z,19.82
2022-12-27T04:26:21.938Z,19.79
2022-12-27T04:27:22.539Z,19.82
2022-12-27T04:28:23.133Z,19.77
2022-12-27T04:29:23.737Z,19.82
2022-12-27T04:30:24.334Z,19.88
2022-12-27T04:31:24.965Z,19.84
2022-12-27T04:32:25.564Z,19.84
2022-12-27T04:33:26.171Z,19.77
2022-12-27T04:34:26.761Z,19.79
2022-12-27T04:35:27.429Z,19.82
2022-12-27T04:36:28.040Z,19.82
2022-12-27T04:37:28.657Z,19.84
2022-12-27T04:38:29.278Z,19.79
2022-12-27T04:39:29.898Z,19.81
2022-12-27T04:40:30.543Z,19.81
2022-12-27T04:41:31.157Z,19.82
2022-12-27T04:42:31.756Z,19.77
2022-12-27T04:43:32.353Z,19.79
2022-12-27T04:44:32.970Z,19.79
2022-12-27T04:45:33.546Z,19.74
2022-12-27T04:46:34.222Z,19.76
2022-12-27T04:47:34.818Z,19.82
2022-12-27T04:48:35.419Z,19.74
2022-12-27T04:49:36.021Z,19.79
2022-12-27T04:50:36.622Z,19.74
2022-12-27T04:51:37.219Z,19.76
2022-12-27T04:52:38.055Z,19.79
2022-12-27T04:53:38.781Z,19.81
2022-12-27T04:54:39.450Z,19.84
2022-12-27T04:55:40.052Z,19.85
2022-12-27T04:56:40.641Z,19.76
2022-12-27T04:57:41.305Z,19.84
2022-12-27T04:58:41.905Z,19.76
2022-12-27T04:59:42.519Z,19.84
2022-12-27T05:00:43.103Z,19.73
2022-12-27T05:01:43.791Z,19.84
2022-12-27T05:02:44.696Z,19.71
2022-12-27T05:03:45.485Z,19.71
2022-12-27T05:04:46.096Z,19.74
2022-12-27T05:05:46.685Z,19.74
2022-12-27T05:06:47.282Z,19.70
2022-12-27T05:07:47.896Z,19.71
2022-12-27T05:08:48.486Z,19.81
2022-12-27T05:09:49.120Z,19.71
2022-12-27T05:10:49.771Z,19.73
2022-12-27T05:11:50.417Z,19.76
2022-12-27T05:12:51.015Z,19.77
2022-12-27T05:13:51.608Z,19.82
2022-12-27T05:14:52.211Z,19.76
2022-12-27T05:15:52.856Z,19.76
2022-12-27T05:16:53.465Z,19.70
2022-12-27T05:17:54.056Z,19.70
2022-12-27T05:18:54.660Z,19.73
2022-12-27T05:19:55.253Z,19.77
2022-12-27T05:20:55.855Z,19.79
2022-12-27T05:21:56.455Z,19.77
2022-12-27T05:22:57.200Z,19.69
2022-12-27T05:24:01.908Z,19.73
2022-12-27T05:24:59.395Z,19.77
2022-12-27T05:25:59.988Z,19.73
2022-12-27T05:27:00.588Z,19.70
2022-12-27T05:28:01.181Z,19.73
2022-12-27T05:29:01.783Z,19.73
2022-12-27T05:30:02.398Z,19.70
2022-12-27T05:31:03.017Z,19.71
2022-12-27T05:32:07.980Z,19.79
2022-12-27T05:33:05.246Z,19.71
2022-12-27T05:34:05.835Z,19.64
2022-12-27T05:35:07.237Z,19.73
2022-12-27T05:36:07.832Z,19.64
2022-12-27T05:37:08.445Z,19.74
2022-12-27T05:38:09.027Z,19.77
2022-12-27T05:39:09.630Z,19.63
2022-12-27T05:40:10.225Z,19.70
2022-12-27T05:41:10.834Z,19.71
2022-12-27T05:42:11.429Z,19.67
2022-12-27T05:43:12.088Z,19.69
2022-12-27T05:44:12.740Z,19.76
2022-12-27T05:45:13.318Z,19.64
2022-12-27T05:46:14.752Z,19.67
2022-12-27T05:47:15.394Z,19.73
2022-12-27T05:48:15.989Z,19.66
2022-12-27T05:49:16.590Z,19.71
2022-12-27T05:50:17.184Z,19.66
2022-12-27T05:51:17.787Z,19.63
2022-12-27T05:52:18.384Z,19.67
2022-12-27T05:53:18.981Z,19.69
2022-12-27T05:54:19.622Z,19.63
2022-12-27T05:55:20.228Z,19.59
2022-12-27T05:56:20.876Z,19.63
2022-12-27T05:57:21.471Z,19.69
2022-12-27T05:58:22.067Z,19.63
2022-12-27T05:59:22.665Z,19.56
2022-12-27T06:00:23.261Z,19.71
2022-12-27T06:01:23.930Z,19.64
2022-12-27T06:02:24.666Z,19.63
2022-12-27T06:03:25.419Z,19.62
2022-12-27T06:04:26.065Z,19.69
2022-12-27T06:05:26.661Z,19.62
2022-12-27T06:06:27.258Z,19.54
2022-12-27T06:07:27.861Z,19.64
2022-12-27T06:08:28.521Z,19.59
2022-12-27T06:09:29.129Z,19.66
2022-12-27T06:10:29.729Z,19.64
2022-12-27T06:11:30.323Z,19.64
2022-12-27T06:12:30.932Z,19.51
2022-12-27T06:13:32.435Z,19.66
2022-12-27T06:14:33.036Z,19.63
2022-12-27T06:15:33.633Z,19.58
2022-12-27T06:16:34.279Z,19.54
2022-12-27T06:17:35.756Z,19.56
2022-12-27T06:18:36.375Z,19.62
2022-12-27T06:19:37.021Z,19.62
2022-12-27T06:20:37.613Z,19.55
2022-12-27T06:21:38.217Z,19.62
2022-12-27T06:22:38.808Z,19.59
2022-12-27T06:23:39.416Z,19.59
2022-12-27T06:24:40.009Z,19.52
2022-12-27T06:25:40.618Z,19.54
2022-12-27T06:26:41.281Z,19.64
2022-12-27T06:27:41.881Z,19.59
2022-12-27T06:28:43.337Z,19.51
2022-12-27T06:29:43.920Z,19.63
2022-12-27T06:30:44.561Z,19.59
2022-12-27T06:31:45.292Z,19.63
2022-12-27T06:32:45.949Z,19.58
2022-12-27T06:33:46.608Z,19.56
2022-12-27T06:34:47.344Z,19.52
2022-12-27T06:35:47.932Z,19.58
2022-12-27T06:36:48.532Z,19.58
2022-12-27T06:37:49.128Z,19.52
2022-12-27T06:38:49.719Z,19.51
2022-12-27T06:39:50.325Z,19.62
2022-12-27T06:40:50.913Z,19.62
2022-12-27T06:41:52.365Z,19.58
2022-12-27T06:42:52.959Z,19.58
2022-12-27T06:43:53.561Z,19.52
2022-12-27T06:44:54.172Z,19.52
2022-12-27T06:45:54.800Z,19.55
2022-12-27T06:46:55.436Z,19.56
2022-12-27T06:47:56.024Z,19.55
2022-12-27T06:48:56.617Z,19.45
2022-12-27T06:49:57.233Z,19.55
2022-12-27T06:50:58.479Z,19.55
2022-12-27T06:51:59.925Z,19.56
2022-12-27T06:53:00.621Z,19.52
2022-12-27T06:54:01.299Z,19.49
2022-12-27T06:55:01.877Z,19.49
2022-12-27T06:56:02.481Z,19.62
2022-12-27T06:57:03.078Z,19.54
2022-12-27T06:58:03.678Z,19.48
2022-12-27T06:59:04.277Z,19.52
2022-12-27T07:00:04.939Z,19.47
2022-12-27T07:01:05.611Z,19.51
2022-12-27T07:02:06.382Z,19.48
2022-12-27T07:03:07.055Z,19.55
2022-12-27T07:04:07.657Z,19.47
2022-12-27T07:05:08.254Z,19.52
2022-12-27T07:06:08.927Z,19.41
2022-12-27T07:07:15.303Z,19.49
2022-12-27T07:08:11.115Z,19.56
2022-12-27T07:09:11.713Z,19.51
2022-12-27T07:10:12.314Z,19.52
2022-12-27T07:11:12.899Z,19.45
2022-12-27T07:12:13.503Z,19.41
2022-12-27T07:13:14.108Z,19.44
2022-12-27T07:14:14.755Z,19.54
2022-12-27T07:15:15.367Z,19.45
2022-12-27T07:16:15.987Z,19.54
2022-12-27T07:17:16.584Z,19.44
2022-12-27T07:18:17.191Z,19.51
2022-12-27T07:19:17.850Z,19.40
2022-12-27T07:20:18.453Z,19.52
2022-12-27T07:21:19.047Z,19.54
2022-12-27T07:22:19.663Z,19.49
2022-12-27T07:23:20.411Z,19.49
2022-12-27T07:24:21.152Z,19.54
2022-12-27T07:25:21.705Z,19.49
2022-12-27T07:26:22.311Z,19.47
2022-12-27T07:27:22.976Z,19.45
2022-12-27T07:28:23.579Z,19.49
2022-12-27T07:29:24.174Z,19.45
2022-12-27T07:30:24.780Z,19.48
2022-12-27T07:31:26.259Z,19.49
2022-12-27T07:32:26.914Z,19.49
2022-12-27T07:33:27.507Z,19.49
2022-12-27T07:34:28.255Z,19.49
2022-12-27T07:35:28.953Z,19.49
2022-12-27T07:36:29.595Z,19.47
2022-12-27T07:37:30.223Z,19.41
2022-12-27T07:38:30.815Z,19.44
2022-12-27T07:39:31.413Z,19.45
2022-12-27T07:40:32.014Z,19.51
2022-12-27T07:41:32.610Z,19.48
2022-12-27T07:42:33.211Z,19.49
2022-12-27T07:43:33.836Z,19.45
2022-12-27T07:44:34.494Z,19.45
2022-12-27T07:45:35.103Z,19.44
2022-12-27T07:46:35.745Z,19.48
2022-12-27T07:47:36.477Z,19.48
2022-12-27T07:48:37.103Z,19.55
2022-12-27T07:49:37.686Z,19.48
2022-12-27T07:50:38.292Z,19.48
2022-12-27T07:51:38.884Z,19.41
2022-12-27T07:52:39.490Z,19.49
2022-12-27T07:53:40.106Z,19.48
2022-12-27T07:54:40.689Z,19.48
2022-12-27T07:55:41.283Z,19.41
2022-12-27T07:56:41.891Z,19.44
2022-12-27T07:57:42.481Z,19.41
2022-12-27T07:58:43.080Z,19.41
2022-12-27T07:59:43.748Z,19.55
2022-12-27T08:00:44.347Z,19.44
2022-12-27T08:01:45.090Z,19.47
2022-12-27T08:02:45.686Z,19.44
2022-12-27T08:03:46.304Z,19.41
2022-12-27T08:04:46.885Z,19.44
2022-12-27T08:05:47.481Z,19.44
2022-12-27T08:06:48.079Z,19.41
2022-12-27T08:07:48.672Z,19.44
2022-12-27T08:08:49.281Z,19.45
2022-12-27T08:09:49.888Z,19.44
2022-12-27T08:10:50.467Z,19.48
2022-12-27T08:11:51.059Z,19.41
2022-12-27T08:12:51.667Z,19.39
2022-12-27T08:13:52.254Z,19.45
2022-12-27T08:14:52.856Z,19.44
2022-12-27T08:15:53.449Z,19.47
2022-12-27T08:16:54.145Z,19.49
2022-12-27T08:17:54.761Z,19.40
2022-12-27T08:18:55.364Z,19.37
2022-12-27T08:19:55.960Z,19.41
2022-12-27T08:20:56.570Z,19.47
2022-12-27T08:21:57.158Z,19.44
2022-12-27T08:22:57.760Z,19.44
2022-12-27T08:23:58.507Z,19.41
2022-12-27T08:24:59.115Z,19.41
2022-12-27T08:25:59.767Z,19.41
2022-12-27T08:27:00.368Z,19.44
2022-12-27T08:28:00.961Z,19.41
2022-12-27T08:29:01.574Z,19.47
2022-12-27T08:30:02.159Z,19.39
2022-12-27T08:31:02.801Z,19.44
2022-12-27T08:32:03.420Z,19.45
2022-12-27T08:33:04.016Z,19.47
2022-12-27T08:34:04.710Z,19.44
2022-12-27T08:35:41.749Z,19.41
2022-12-27T08:36:22.314Z,19.40
2022-12-27T08:37:08.554Z,19.36
2022-12-27T08:38:09.148Z,19.41
2022-12-27T08:39:09.749Z,19.41
2022-12-27T08:40:10.344Z,19.40
2022-12-27T08:41:10.953Z,19.40
2022-12-27T08:42:11.690Z,19.44
2022-12-27T08:43:12.289Z,19.44
2022-12-27T08:44:12.894Z,19.41
2022-12-27T08:45:13.529Z,19.47
2022-12-27T08:46:14.198Z,19.39
2022-12-27T08:47:14.808Z,19.41
2022-12-27T08:48:15.452Z,19.37
2022-12-27T08:49:16.043Z,19.37
2022-12-27T08:50:16.636Z,19.44
2022-12-27T08:51:30.005Z,19.39
2022-12-27T08:52:19.075Z,19.37
2022-12-27T08:53:19.741Z,19.36
2022-12-27T08:54:20.333Z,19.45
2022-12-27T08:55:21.153Z,19.44
2022-12-27T08:56:21.752Z,19.39
2022-12-27T08:57:22.359Z,19.33
2022-12-27T08:58:22.944Z,19.37
2022-12-27T08:59:23.538Z,19.40
2022-12-27T09:00:24.127Z,19.45
2022-12-27T09:01:24.763Z,19.41
2022-12-27T09:02:25.519Z,19.37
2022-12-27T09:03:26.102Z,19.41
2022-12-27T09:04:26.705Z,19.44
2022-12-27T09:05:27.299Z,19.44
2022-12-27T09:06:27.968Z,19.45
2022-12-27T09:07:28.593Z,19.39
2022-12-27T09:08:29.205Z,19.45
2022-12-27T09:09:29.792Z,19.47
2022-12-27T09:10:30.395Z,19.48
2022-12-27T09:11:30.999Z,19.45
2022-12-27T09:12:31.595Z,19.39
2022-12-27T09:13:32.191Z,19.40
2022-12-27T09:14:32.799Z,19.44
2022-12-27T09:15:33.422Z,19.44
2022-12-27T09:16:34.085Z,19.44
2022-12-27T09:17:34.716Z,19.37
2022-12-27T09:18:35.348Z,19.37
2022-12-27T09:19:35.977Z,19.34
2022-12-27T09:20:36.577Z,19.36
2022-12-27T09:21:37.174Z,19.41
2022-12-27T09:22:37.776Z,19.36
2022-12-27T09:23:38.372Z,19.39
2022-12-27T09:24:38.981Z,19.37
2022-12-27T09:25:39.597Z,19.40
2022-12-27T09:26:40.190Z,19.34
2022-12-27T09:27:40.858Z,19.39
2022-12-27T09:28:41.471Z,19.48
2022-12-27T09:29:48.123Z,19.40
2022-12-27T09:30:43.736Z,19.44
2022-12-27T09:31:44.350Z,19.49
2022-12-27T09:32:45.053Z,19.41
2022-12-27T09:33:45.648Z,19.47
2022-12-27T09:34:46.247Z,19.45
2022-12-27T09:35:46.842Z,19.40
2022-12-27T09:36:47.443Z,19.45
2022-12-27T09:37:48.038Z,19.44
2022-12-27T09:38:48.643Z,19.47
2022-12-27T09:39:49.233Z,19.44
2022-12-27T09:40:49.837Z,19.48
2022-12-27T09:43:02.937Z,19.41
2022-12-27T09:43:53.661Z,19.45
2022-12-27T09:44:54.263Z,19.45
2022-12-27T09:45:54.879Z,19.44
2022-12-27T09:46:55.523Z,19.48
2022-12-27T09:47:56.118Z,19.44
2022-12-27T09:48:56.769Z,19.39
2022-12-27T09:49:57.363Z,19.41
2022-12-27T09:50:57.968Z,19.41
2022-12-27T09:51:58.710Z,19.44
2022-12-27T09:52:59.312Z,19.47
2022-12-27T09:53:59.912Z,19.40
2022-12-27T09:55:04.672Z,19.47
2022-12-27T09:56:02.096Z,19.41
2022-12-27T09:57:19.362Z,19.47
2022-12-27T09:58:04.344Z,19.47
2022-12-27T09:59:04.975Z,19.44
2022-12-27T10:00:05.571Z,19.39
2022-12-27T10:01:06.235Z,19.45
2022-12-27T10:02:06.933Z,19.44
2022-12-27T10:03:07.554Z,19.47
2022-12-27T10:04:08.156Z,19.47
2022-12-27T10:05:24.160Z,19.44
2022-12-27T10:06:10.400Z,19.45
2022-12-27T10:07:11.005Z,19.47
2022-12-27T10:08:11.605Z,19.44
2022-12-27T10:09:12.206Z,19.49
2022-12-27T10:10:12.800Z,19.45
2022-12-27T10:11:13.400Z,19.36
2022-12-27T10:12:13.996Z,19.41
2022-12-27T10:13:15.133Z,19.44
2022-12-27T10:14:15.728Z,19.47
2022-12-27T10:15:16.335Z,19.45
2022-12-27T10:16:16.982Z,19.45
2022-12-27T10:17:17.590Z,19.45
2022-12-27T10:18:18.178Z,19.48
2022-12-27T10:19:18.779Z,19.41
2022-12-27T10:20:19.428Z,19.40
2022-12-27T10:21:20.034Z,19.47
2022-12-27T10:22:20.622Z,19.44
2022-12-27T10:23:21.232Z,19.41
2022-12-27T10:24:21.819Z,19.41
2022-12-27T10:25:22.427Z,19.47
2022-12-27T10:26:23.049Z,19.44
2022-12-27T10:27:23.648Z,19.41
2022-12-27T10:28:24.241Z,19.47
2022-12-27T10:29:24.849Z,19.48
2022-12-27T10:30:25.443Z,19.47
2022-12-27T10:31:26.094Z,19.44
2022-12-27T10:32:26.692Z,19.44
2022-12-27T10:33:27.301Z,19.44
2022-12-27T10:34:27.896Z,19.44
2022-12-27T10:35:28.498Z,19.44
2022-12-27T10:36:29.126Z,19.44
2022-12-27T10:37:29.741Z,19.44
2022-12-27T10:38:30.379Z,19.45
2022-12-27T10:39:30.988Z,19.44
2022-12-27T10:40:34.544Z,19.39
2022-12-27T10:41:33.187Z,19.48
2022-12-27T10:42:33.778Z,19.54
2022-12-27T10:43:34.381Z,19.44
2022-12-27T10:44:35.018Z,19.56
2022-12-27T10:45:35.620Z,19.45
2022-12-27T10:46:36.251Z,19.49
2022-12-27T10:47:36.894Z,19.49
2022-12-27T10:49:02.663Z,19.51
2022-12-27T10:49:39.088Z,19.48
2022-12-27T10:50:39.680Z,19.45
2022-12-27T10:51:40.283Z,19.51
2022-12-27T10:52:40.880Z,19.45
2022-12-27T10:53:42.335Z,19.51
2022-12-27T10:54:42.929Z,19.41
2022-12-27T10:55:43.534Z,19.51
2022-12-27T10:56:44.365Z,19.45
2022-12-27T10:57:44.999Z,19.49
2022-12-27T10:58:45.716Z,19.48
2022-12-27T10:59:46.323Z,19.44
2022-12-27T11:00:46.935Z,19.47
2022-12-27T11:01:47.631Z,19.52
2022-12-27T11:02:48.372Z,19.52
2022-12-27T11:03:49.119Z,19.58
2022-12-27T11:04:49.713Z,19.52
2022-12-27T11:05:50.316Z,19.52
2022-12-27T11:06:50.915Z,19.56
2022-12-27T11:07:51.515Z,19.59
2022-12-27T11:08:52.111Z,19.55
2022-12-27T11:09:52.716Z,19.59
2022-12-27T11:10:53.311Z,19.58
2022-12-27T11:11:53.914Z,19.54
2022-12-27T11:12:54.516Z,19.52
2022-12-27T11:13:55.179Z,19.63
2022-12-27T11:14:55.789Z,19.59
2022-12-27T11:15:58.788Z,19.55
2022-12-27T11:16:57.960Z,19.58
2022-12-27T11:17:58.565Z,19.59
2022-12-27T11:18:59.176Z,19.51
2022-12-27T11:19:59.843Z,19.59
2022-12-27T11:21:00.426Z,19.59
2022-12-27T11:22:01.031Z,19.56
2022-12-27T11:23:01.631Z,19.62
2022-12-27T11:24:02.230Z,19.62
2022-12-27T11:25:02.836Z,19.56
2022-12-27T11:26:03.434Z,19.59
2022-12-27T11:27:04.028Z,19.62
2022-12-27T11:28:04.633Z,19.63
2022-12-27T11:29:05.231Z,19.59
2022-12-27T11:30:05.836Z,19.63
2022-12-27T11:31:06.486Z,19.63
2022-12-27T11:32:07.126Z,19.69
2022-12-27T11:33:07.737Z,19.52
2022-12-27T11:34:08.345Z,19.54
2022-12-27T11:35:08.924Z,19.62
2022-12-27T11:36:09.528Z,19.56
2022-12-27T11:37:10.125Z,19.63
2022-12-27T11:38:10.729Z,19.62
2022-12-27T11:39:11.323Z,19.55
2022-12-27T11:40:11.939Z,19.56
2022-12-27T11:41:12.522Z,19.55
2022-12-27T11:42:13.191Z,19.51
2022-12-27T11:43:13.777Z,19.63
2022-12-27T11:44:14.380Z,19.62
2022-12-27T11:45:14.974Z,19.58
2022-12-27T11:46:15.580Z,19.55
2022-12-27T11:47:16.202Z,19.52
2022-12-27T11:48:16.833Z,19.59
2022-12-27T11:49:17.429Z,19.59
2022-12-27T11:50:18.079Z,19.59
2022-12-27T11:51:18.678Z,19.55
2022-12-27T11:52:19.293Z,19.59
2022-12-27T11:53:19.931Z,19.64
2022-12-27T11:54:20.533Z,19.63
2022-12-27T11:55:21.128Z,19.59
2022-12-27T11:56:21.732Z,19.55
2022-12-27T11:57:22.374Z,19.49
2022-12-27T11:58:22.976Z,19.51
2022-12-27T11:59:23.575Z,19.55
2022-12-27T12:00:24.273Z,19.59
2022-12-27T12:01:24.946Z,19.56
2022-12-27T12:02:26.425Z,19.59
2022-12-27T12:03:27.059Z,19.54
2022-12-27T12:04:27.722Z,19.58
2022-12-27T12:05:28.444Z,19.52
2022-12-27T12:06:34.289Z,19.54
2022-12-27T12:07:30.637Z,19.55
2022-12-27T12:08:31.238Z,19.56
2022-12-27T12:09:31.833Z,19.62
2022-12-27T12:10:32.438Z,19.62
2022-12-27T12:11:33.030Z,19.52
2022-12-27T12:12:33.637Z,19.54
2022-12-27T12:13:34.235Z,19.56
2022-12-27T12:14:34.899Z,19.55
2022-12-27T12:15:35.491Z,19.47
2022-12-27T12:16:36.133Z,19.47
2022-12-27T12:17:36.821Z,19.55
2022-12-27T12:18:37.432Z,19.47
2022-12-27T12:19:38.028Z,19.55
2022-12-27T12:20:38.682Z,19.48
2022-12-27T12:21:39.275Z,19.54
2022-12-27T12:22:39.874Z,19.44
2022-12-27T12:23:40.467Z,19.44
2022-12-27T12:24:41.071Z,19.54
2022-12-27T12:25:41.667Z,19.49
2022-12-27T12:26:42.268Z,19.54
2022-12-27T12:27:42.867Z,19.51
2022-12-27T12:29:00.125Z,19.45
2022-12-27T12:29:45.126Z,19.40
2022-12-27T12:30:45.873Z,19.47
2022-12-27T12:31:46.504Z,19.54
2022-12-27T12:32:47.174Z,19.54
2022-12-27T12:33:47.917Z,19.52
2022-12-27T12:34:48.676Z,19.51
2022-12-27T12:35:49.309Z,19.48
2022-12-27T12:36:52.658Z,19.54
2022-12-27T12:37:51.500Z,19.45
2022-12-27T12:38:52.100Z,19.54
2022-12-27T12:39:52.696Z,19.54
2022-12-27T12:40:53.303Z,19.44
2022-12-27T12:41:53.906Z,19.44
2022-12-27T12:42:54.507Z,19.45
2022-12-27T12:43:55.102Z,19.48
2022-12-27T12:44:55.705Z,19.45
2022-12-27T12:45:56.319Z,19.52
2022-12-27T12:46:56.932Z,19.55
2022-12-27T12:47:57.524Z,19.49
2022-12-27T12:48:58.123Z,19.41
2022-12-27T12:49:58.716Z,19.41
2022-12-27T12:50:59.324Z,19.49
2022-12-27T12:51:59.930Z,19.51
2022-12-27T12:53:00.515Z,19.52
2022-12-27T12:54:01.112Z,19.47
2022-12-27T12:55:01.827Z,19.40
2022-12-27T12:56:02.422Z,19.49
2022-12-27T12:57:03.033Z,19.54
2022-12-27T12:58:03.692Z,19.54
2022-12-27T12:59:04.291Z,19.48
2022-12-27T13:00:04.887Z,19.54
2022-12-27T13:01:05.559Z,19.51
2022-12-27T13:02:06.390Z,19.47